Time;durP1;ratioP1;P1;durP2;ratioP2;P2;SDS_P1;SDS_P2;PMS_P1;PMS_P2;Temp;Humidity;BMP_temperature;BMP_pressure;BME280_temperature;BME280_humidity;BME280_pressure;Samples;Min_cycle;Max_cycle;Signal;HPM_P1;HPM_P2
2023/09/04 00:01:12;;;;;;;3.83;2.97;;;19.30;99.90;;;;;;5028447;28;20088;-77
2023/09/04 00:03:39;;;;;;;4.00;3.00;;;19.20;99.90;;;;;;5007548;28;20060;-77
2023/09/04 00:06:06;;;;;;;3.95;3.20;;;19.20;99.90;;;;;;5024783;28;20057;-76
2023/09/04 00:08:32;;;;;;;10.18;4.05;;;19.20;99.90;;;;;;5027443;28;20076;-77
2023/09/04 00:10:59;;;;;;;4.65;3.50;;;19.20;99.90;;;;;;5026788;28;20050;-77
2023/09/04 00:13:26;;;;;;;5.50;3.40;;;19.20;99.90;;;;;;5018637;28;20445;-77
2023/09/04 00:15:56;;;;;;;5.00;2.88;;;19.10;99.90;;;;;;5025891;28;20073;-77
2023/09/04 00:18:24;;;;;;;3.97;2.80;;;19.10;99.90;;;;;;5027727;28;20050;-76
2023/09/04 00:20:52;;;;;;;3.05;2.35;;;19.10;99.90;;;;;;5024947;28;20049;-77
2023/09/04 00:23:18;;;;;;;4.78;3.33;;;19.00;99.90;;;;;;5025797;28;20056;-77
2023/09/04 00:25:46;;;;;;;2.78;2.58;;;19.10;99.90;;;;;;5028081;28;20128;-77
2023/09/04 00:28:13;;;;;;;7.22;3.15;;;19.00;99.90;;;;;;5019409;28;20085;-77
2023/09/04 00:30:41;;;;;;;4.93;2.83;;;19.00;99.90;;;;;;5026266;28;20428;-76
2023/09/04 00:33:08;;;;;;;5.47;3.00;;;19.00;99.90;;;;;;5012871;28;20046;-76
2023/09/04 00:35:35;;;;;;;5.07;2.97;;;19.00;99.90;;;;;;5023757;28;20103;-77
2023/09/04 00:38:02;;;;;;;4.65;2.55;;;18.90;99.90;;;;;;5024694;28;20042;-77
2023/09/04 00:40:28;;;;;;;6.80;2.75;;;18.90;99.90;;;;;;5030027;28;20088;-77
2023/09/04 00:42:55;;;;;;;6.75;2.65;;;18.90;99.90;;;;;;5017790;28;20077;-79
2023/09/04 00:45:22;;;;;;;4.20;2.67;;;18.90;99.90;;;;;;5024912;28;20136;-77
2023/09/04 00:47:49;;;;;;;5.63;2.85;;;18.90;99.90;;;;;;5029446;28;20535;-77
2023/09/04 00:50:23;;;;;;;3.17;2.88;;;18.90;99.90;;;;;;5018295;28;20151;-77
2023/09/04 00:52:58;;;;;;;3.25;2.65;;;18.80;99.90;;;;;;5024018;28;20042;-77
2023/09/04 00:55:25;;;;;;;5.90;2.90;;;18.80;99.90;;;;;;5029561;28;20131;-77
2023/09/04 00:57:52;;;;;;;5.10;3.00;;;18.80;99.90;;;;;;5015244;28;20069;-76
2023/09/04 01:00:22;;;;;;;5.18;2.40;;;18.70;99.90;;;;;;5022233;28;20078;-76
2023/09/04 01:02:50;;;;;;;3.03;2.45;;;18.70;99.90;;;;;;5030254;28;20067;-76
2023/09/04 01:05:17;;;;;;;3.63;2.75;;;18.70;99.90;;;;;;5017057;28;20125;-77
2023/09/04 01:07:44;;;;;;;6.00;2.60;;;18.70;99.90;;;;;;5025028;28;20058;-77
2023/09/04 01:10:13;;;;;;;4.57;3.13;;;18.70;99.90;;;;;;5030893;28;20052;-77
2023/09/04 01:12:58;;;;;;;4.70;3.20;;;18.70;99.90;;;;;;5019359;28;20081;-77
2023/09/04 01:15:26;;;;;;;3.60;2.88;;;18.60;99.90;;;;;;5022078;28;20497;-77
2023/09/04 01:17:53;;;;;;;3.13;2.45;;;18.60;99.90;;;;;;5028335;28;20048;-77
2023/09/04 01:20:25;;;;;;;5.97;2.42;;;18.60;99.90;;;;;;5022139;28;20081;-78
2023/09/04 01:22:51;;;;;;;4.70;2.20;;;18.60;99.90;;;;;;5022603;28;20465;-76
2023/09/04 01:25:18;;;;;;;4.80;2.60;;;18.50;99.90;;;;;;5028416;28;20087;-76
2023/09/04 01:27:55;;;;;;;3.58;3.00;;;18.50;99.90;;;;;;5016324;28;20103;-77
2023/09/04 01:30:33;;;;;;;5.57;2.65;;;18.50;99.90;;;;;;5024805;28;20509;-76
2023/09/04 01:33:04;;;;;;;5.55;2.95;;;18.50;99.90;;;;;;5024006;28;20049;-77
2023/09/04 01:35:32;;;;;;;;;;;18.50;99.90;;;;;;5020675;28;20513;-76
2023/09/04 01:37:59;;;;;;;4.63;2.70;;;18.40;99.90;;;;;;5018388;28;19972;-77
2023/09/04 01:40:26;;;;;;;6.57;2.83;;;18.40;99.90;;;;;;5027993;28;20046;-77
2023/09/04 01:42:52;;;;;;;2.95;2.38;;;18.40;99.90;;;;;;5018904;28;20112;-76
2023/09/04 01:45:19;;;;;;;3.92;2.83;;;18.40;99.90;;;;;;5025392;28;20050;-77
2023/09/04 01:47:46;;;;;;;6.70;2.72;;;18.40;99.90;;;;;;5026749;28;20096;-78
2023/09/04 01:50:13;;;;;;;3.00;2.70;;;18.30;99.90;;;;;;5022073;28;20540;-77
2023/09/04 01:52:40;;;;;;;7.90;4.13;;;18.30;99.90;;;;;;5021757;28;20129;-77
2023/09/04 01:55:07;;;;;;;9.02;3.70;;;18.30;99.90;;;;;;5026991;28;20073;-77
2023/09/04 01:57:34;;;;;;;4.30;3.28;;;18.30;99.90;;;;;;5021546;28;20050;-77
2023/09/04 02:00:01;;;;;;;4.25;3.00;;;18.30;99.90;;;;;;5025234;28;20076;-77
2023/09/04 02:02:27;;;;;;;3.05;2.75;;;18.30;99.90;;;;;;5027006;28;20072;-77
2023/09/04 02:04:54;;;;;;;4.68;3.08;;;18.20;99.90;;;;;;5025163;28;20099;-77
2023/09/04 02:07:21;;;;;;;3.80;3.08;;;18.20;99.90;;;;;;5019237;28;20107;-76
2023/09/04 02:09:48;;;;;;;6.53;3.90;;;18.20;99.90;;;;;;5023383;28;20537;-76
2023/09/04 02:12:14;;;;;;;6.60;3.85;;;18.20;99.90;;;;;;5023705;28;20049;-77
2023/09/04 02:14:41;;;;;;;9.93;4.68;;;18.10;99.90;;;;;;5023578;28;20045;-76
2023/09/04 02:17:08;;;;;;;6.97;4.15;;;18.10;99.90;;;;;;5025189;28;20109;-76
2023/09/04 02:19:36;;;;;;;6.65;4.03;;;18.10;99.90;;;;;;5025074;28;20204;-77
2023/09/04 02:22:02;;;;;;;5.25;3.97;;;18.10;99.90;;;;;;5018288;28;20130;-77
2023/09/04 02:24:32;;;;;;;9.25;4.47;;;18.10;99.90;;;;;;5023974;28;20085;-77
2023/09/04 02:26:59;;;;;;;7.03;4.90;;;18.10;99.90;;;;;;5025697;28;20045;-76
2023/09/04 02:29:25;;;;;;;6.68;3.65;;;18.00;99.90;;;;;;5018901;28;20132;-77
2023/09/04 02:31:52;;;;;;;6.13;3.65;;;18.00;99.90;;;;;;5026129;28;20077;-79
2023/09/04 02:34:19;;;;;;;3.88;3.40;;;18.00;99.90;;;;;;5026175;28;20046;-77
2023/09/04 02:36:46;;;;;;;4.45;3.55;;;18.00;99.90;;;;;;5018081;28;20153;-77
2023/09/04 02:39:13;;;;;;;6.10;3.30;;;18.00;99.90;;;;;;5023404;28;20082;-77
2023/09/04 02:41:39;;;;;;;6.70;3.90;;;18.00;99.90;;;;;;5029185;28;20133;-77
2023/09/04 02:44:06;;;;;;;3.63;3.08;;;17.90;99.90;;;;;;5022346;28;20132;-76
2023/09/04 02:46:33;;;;;;;5.57;3.63;;;17.90;99.90;;;;;;5023578;28;20049;-77
2023/09/04 02:48:59;;;;;;;8.43;3.90;;;17.90;99.90;;;;;;5023428;28;20103;-80
2023/09/04 02:51:26;;;;;;;5.60;3.53;;;17.90;99.90;;;;;;5018712;28;20093;-80
2023/09/04 02:53:53;;;;;;;6.35;3.50;;;17.90;99.90;;;;;;5025225;28;20084;-80
2023/09/04 02:56:20;;;;;;;5.80;4.25;;;17.90;99.90;;;;;;5031728;28;20045;-79
2023/09/04 02:58:47;;;;;;;5.95;3.53;;;17.90;99.90;;;;;;5023700;28;20081;-79
2023/09/04 03:01:16;;;;;;;6.88;4.75;;;17.90;99.90;;;;;;5024263;28;20128;-79
2023/09/04 03:03:42;;;;;;;9.18;5.70;;;17.90;99.90;;;;;;5029540;28;20053;-78
2023/09/04 03:06:10;;;;;;;11.70;7.68;;;17.90;99.90;;;;;;5021123;28;20115;-79
2023/09/04 03:08:40;;;;;;;16.17;11.07;;;17.90;99.90;;;;;;5015990;28;20054;-79
2023/09/04 03:11:09;;;;;;;18.60;12.77;;;17.90;99.90;;;;;;5030869;28;20041;-79
2023/09/04 03:13:39;;;;;;;18.77;13.10;;;17.90;99.90;;;;;;5023192;28;20125;-79
2023/09/04 03:16:06;;;;;;;18.27;12.90;;;18.00;99.90;;;;;;5024151;28;20401;-79
2023/09/04 03:18:34;;;;;;;22.27;13.48;;;18.00;99.90;;;;;;5029192;28;20092;-78
2023/09/04 03:21:04;;;;;;;38.33;15.48;;;18.00;99.90;;;;;;5021173;28;20125;-79
2023/09/04 03:23:32;;;;;;;25.25;15.70;;;18.00;99.90;;;;;;5026757;28;20054;-79
2023/09/04 03:25:59;;;;;;;34.78;15.30;;;18.10;99.90;;;;;;5033585;28;20072;-79
2023/09/04 03:28:26;;;;;;;53.55;18.13;;;18.10;99.90;;;;;;5021593;28;20050;-79
2023/09/04 03:30:53;;;;;;;61.65;20.00;;;18.10;99.90;;;;;;5028174;28;20136;-79
2023/09/04 03:33:20;;;;;;;71.10;19.67;;;18.20;99.90;;;;;;5032233;28;20046;-79
2023/09/04 03:35:46;;;;;;;39.30;17.15;;;18.20;99.90;;;;;;5026612;28;20104;-79
2023/09/04 03:38:13;;;;;;;26.35;17.05;;;18.20;99.90;;;;;;5026585;28;20124;-79
2023/09/04 03:40:40;;;;;;;46.08;20.23;;;18.20;99.90;;;;;;5032724;28;20096;-79
2023/09/04 03:43:06;;;;;;;27.15;19.02;;;18.20;99.90;;;;;;5029789;28;20049;-79
2023/09/04 03:45:35;;;;;;;33.35;19.33;;;18.30;99.90;;;;;;5025047;28;20057;-79
2023/09/04 03:48:02;;;;;;;30.50;20.55;;;18.30;99.90;;;;;;5030221;28;20045;-79
2023/09/04 03:50:29;;;;;;;23.05;18.35;;;18.30;99.90;;;;;;5026479;28;20071;-79
2023/09/04 03:52:56;;;;;;;25.83;17.73;;;18.30;99.90;;;;;;5027326;28;20289;-79
2023/09/04 03:55:24;;;;;;;29.08;17.90;;;18.30;99.90;;;;;;5032472;28;20395;-79
2023/09/04 03:57:51;;;;;;;27.90;18.48;;;18.30;99.90;;;;;;5033998;28;20050;-79
2023/09/04 04:00:18;;;;;;;27.13;17.90;;;18.30;99.90;;;;;;5027152;28;20045;-79
2023/09/04 04:02:48;;;;;;;23.75;17.15;;;18.30;99.90;;;;;;5026866;28;20140;-79
2023/09/04 04:05:15;;;;;;;24.40;16.50;;;18.30;99.90;;;;;;5030532;28;20060;-79
2023/09/04 04:07:42;;;;;;;22.05;15.52;;;18.30;99.90;;;;;;5027700;28;20045;-79
2023/09/04 04:10:09;;;;;;;26.10;17.33;;;18.40;99.90;;;;;;5030119;28;20555;-79
2023/09/04 04:12:36;;;;;;;22.83;15.45;;;18.40;99.90;;;;;;5029941;28;20054;-79
2023/09/04 04:15:06;;;;;;;20.92;15.38;;;18.30;99.90;;;;;;5023757;28;20121;-79
2023/09/04 04:17:34;;;;;;;26.65;17.20;;;18.30;99.90;;;;;;5022710;28;20049;-76
2023/09/04 04:20:01;;;;;;;25.05;17.30;;;18.40;99.90;;;;;;5031564;28;20080;-78
2023/09/04 04:22:28;;;;;;;22.08;16.48;;;18.40;99.90;;;;;;5025931;28;20050;-79
2023/09/04 04:24:54;;;;;;;32.58;19.45;;;18.40;99.90;;;;;;5029945;28;20116;-79
2023/09/04 04:27:21;;;;;;;31.00;20.50;;;18.30;99.90;;;;;;5034326;28;20049;-79
2023/09/04 04:29:50;;;;;;;29.65;19.85;;;18.30;99.90;;;;;;5020908;28;20050;-79
2023/09/04 04:32:16;;;;;;;27.13;19.65;;;18.30;99.90;;;;;;5026934;28;20411;-79
2023/09/04 04:34:43;;;;;;;29.35;18.60;;;18.30;99.90;;;;;;5032457;28;20072;-79
2023/09/04 04:37:10;;;;;;;23.83;17.23;;;18.30;99.90;;;;;;5027658;28;20540;-79
2023/09/04 04:39:36;;;;;;;25.00;17.42;;;18.30;99.90;;;;;;5027724;28;20045;-79
2023/09/04 04:42:03;;;;;;;25.95;17.38;;;18.30;99.90;;;;;;5033177;28;20092;-79
2023/09/04 04:44:30;;;;;;;25.23;17.83;;;18.20;99.90;;;;;;5023021;28;20054;-79
2023/09/04 04:46:57;;;;;;;21.20;16.48;;;18.20;99.90;;;;;;5024700;28;20084;-79
2023/09/04 04:49:24;;;;;;;28.13;18.17;;;18.20;99.90;;;;;;5031783;28;20084;-79
2023/09/04 04:51:51;;;;;;;27.63;19.27;;;18.20;99.90;;;;;;5026557;28;20488;-80
2023/09/04 04:54:19;;;;;;;25.42;17.90;;;18.20;99.90;;;;;;5026330;28;20045;-79
2023/09/04 04:56:48;;;;;;;24.27;17.75;;;18.20;99.90;;;;;;5030213;28;20077;-79
2023/09/04 04:59:15;;;;;;;27.98;19.00;;;18.30;99.90;;;;;;5023278;28;20503;-79
2023/09/04 05:01:42;;;;;;;27.92;19.42;;;18.30;99.90;;;;;;5024174;28;20046;-79
2023/09/04 05:04:09;;;;;;;33.75;21.05;;;18.30;99.90;;;;;;5030901;28;20056;-79
2023/09/04 05:06:36;;;;;;;27.15;19.17;;;18.30;99.90;;;;;;5023495;28;20050;-79
2023/09/04 05:09:04;;;;;;;33.10;21.98;;;18.30;99.90;;;;;;5025385;28;20053;-79
2023/09/04 05:11:30;;;;;;;33.00;22.52;;;18.40;99.90;;;;;;5029780;28;20049;-79
2023/09/04 05:14:01;;;;;;;35.83;22.08;;;18.40;99.90;;;;;;5024003;28;20053;-79
2023/09/04 05:16:28;;;;;;;33.95;23.27;;;18.40;99.90;;;;;;5021532;28;20528;-79
2023/09/04 05:18:54;;;;;;;32.47;24.08;;;18.40;99.90;;;;;;5030772;28;20489;-79
2023/09/04 05:21:21;;;;;;;32.42;21.55;;;18.40;99.90;;;;;;5027680;28;20073;-79
2023/09/04 05:23:48;;;;;;;30.15;20.60;;;18.50;99.90;;;;;;5024314;28;20080;-79
2023/09/04 05:26:15;;;;;;;25.65;18.88;;;18.50;99.90;;;;;;5029833;28;20080;-78
2023/09/04 05:28:41;;;;;;;23.45;15.90;;;18.50;99.90;;;;;;5011008;28;20414;-79
2023/09/04 05:31:08;;;;;;;13.80;11.57;;;18.50;99.90;;;;;;5022080;28;20100;-79
2023/09/04 05:33:35;;;;;;;13.52;9.93;;;18.60;99.90;;;;;;5029274;28;20046;-79
2023/09/04 05:36:02;;;;;;;11.98;9.65;;;18.60;99.90;;;;;;5028820;28;20133;-79
2023/09/04 05:38:28;;;;;;;11.93;9.15;;;18.60;99.90;;;;;;5022227;28;20050;-79
2023/09/04 05:40:55;;;;;;;13.50;8.50;;;18.60;99.90;;;;;;5027407;28;20107;-79
2023/09/04 05:43:22;;;;;;;12.32;7.90;;;18.60;99.90;;;;;;5027927;28;20053;-78
2023/09/04 05:45:49;;;;;;;12.68;8.80;;;18.70;99.90;;;;;;5020147;28;20050;-79
2023/09/04 05:48:16;;;;;;;8.82;7.85;;;18.70;99.90;;;;;;5028801;28;20592;-79
2023/09/04 05:50:43;;;;;;;7.10;6.40;;;18.70;99.90;;;;;;5028070;28;20477;-79
2023/09/04 05:53:13;;;;;;;7.93;6.30;;;18.70;99.90;;;;;;5019727;28;20099;-78
2023/09/04 05:55:40;;;;;;;7.43;6.60;;;18.70;99.90;;;;;;5025969;28;20132;-79
2023/09/04 05:58:09;;;;;;;6.22;5.63;;;18.80;99.90;;;;;;5030231;28;20224;-79
2023/09/04 06:00:35;;;;;;;7.10;5.38;;;18.80;99.90;;;;;;5021136;28;20069;-79
2023/09/04 06:03:02;;;;;;;6.60;5.50;;;18.80;99.90;;;;;;5028849;28;20056;-79
2023/09/04 06:05:29;;;;;;;6.00;5.40;;;18.80;99.90;;;;;;5029468;28;20072;-79
2023/09/04 06:07:56;;;;;;;6.85;5.68;;;18.80;99.90;;;;;;5022018;28;20128;-79
2023/09/04 06:10:23;;;;;;;7.55;5.47;;;18.80;99.90;;;;;;5022203;28;20473;-77
2023/09/04 06:12:50;;;;;;;6.25;5.32;;;18.80;99.90;;;;;;5029010;28;20038;-79
2023/09/04 06:15:16;;;;;;;7.45;5.78;;;18.80;99.90;;;;;;5024328;28;20076;-79
2023/09/04 06:17:43;;;;;;;9.00;7.50;;;18.80;99.90;;;;;;5027611;28;20062;-78
2023/09/04 06:20:10;;;;;;;10.00;7.75;;;18.80;99.90;;;;;;5012083;28;20116;-76
2023/09/04 06:22:37;;;;;;;12.57;8.13;;;18.90;99.90;;;;;;5020623;28;20422;-77
2023/09/04 06:25:04;;;;;;;9.20;8.20;;;18.90;99.90;;;;;;5020636;28;20096;-77
2023/09/04 06:27:31;;;;;;;13.88;9.70;;;18.90;99.90;;;;;;5009805;28;20073;-77
2023/09/04 06:29:57;;;;;;;11.82;10.40;;;19.00;99.90;;;;;;5023624;28;20069;-77
2023/09/04 06:32:24;;;;;;;14.75;10.50;;;19.00;99.90;;;;;;5023006;28;20467;-77
2023/09/04 06:34:51;;;;;;;15.82;11.90;;;19.00;99.90;;;;;;5026496;28;20086;-77
2023/09/04 06:37:18;;;;;;;17.50;11.98;;;19.10;99.90;;;;;;5017065;28;20095;-77
2023/09/04 06:39:44;;;;;;;14.07;10.65;;;19.20;99.90;;;;;;5019555;28;20073;-78
2023/09/04 06:42:11;;;;;;;16.27;11.13;;;19.30;99.90;;;;;;5025677;28;20057;-77
2023/09/04 06:44:38;;;;;;;18.13;12.25;;;19.30;99.90;;;;;;5023981;28;20081;-77
2023/09/04 06:47:04;;;;;;;13.65;10.98;;;19.40;99.90;;;;;;5023728;28;20077;-77
2023/09/04 06:49:31;;;;;;;18.15;13.15;;;19.40;99.90;;;;;;5025518;28;20077;-77
2023/09/04 06:51:58;;;;;;;18.17;12.93;;;19.50;99.90;;;;;;5022190;28;20049;-79
2023/09/04 06:54:25;;;;;;;19.27;14.32;;;19.50;99.90;;;;;;5018650;28;20042;-77
2023/09/04 06:56:52;;;;;;;28.33;17.08;;;19.60;99.90;;;;;;5024523;28;20523;-77
2023/09/04 06:59:19;;;;;;;52.38;20.27;;;19.50;99.90;;;;;;5031411;28;20095;-77
2023/09/04 07:01:45;;;;;;;26.08;17.63;;;19.50;99.90;;;;;;5024459;28;20038;-77
2023/09/04 07:04:12;;;;;;;24.17;16.25;;;19.60;99.90;;;;;;5028236;28;20053;-77
2023/09/04 07:06:39;;;;;;;26.60;17.02;;;19.60;99.90;;;;;;5026532;28;20557;-77
2023/09/04 07:09:05;;;;;;;24.20;16.88;;;19.60;99.90;;;;;;5021302;28;20046;-77
2023/09/04 07:11:32;;;;;;;25.38;17.85;;;19.60;99.90;;;;;;5027914;28;20497;-77
2023/09/04 07:13:59;;;;;;;25.77;18.67;;;19.60;99.90;;;;;;5028818;28;20100;-77
2023/09/04 07:16:25;;;;;;;22.30;17.55;;;19.60;99.90;;;;;;5024402;28;20064;-76
2023/09/04 07:19:07;;;;;;;24.00;15.98;;;19.50;99.90;;;;;;5027149;28;20045;-77
2023/09/04 07:21:36;;;;;;;26.50;17.92;;;19.50;99.90;;;;;;5027837;28;20038;-77
2023/09/04 07:24:03;;;;;;;25.50;17.17;;;19.50;99.90;;;;;;5020379;28;20101;-77
2023/09/04 07:26:30;;;;;;;25.60;17.23;;;19.60;99.90;;;;;;5026940;28;20045;-75
2023/09/04 07:28:57;;;;;;;22.00;16.05;;;19.60;99.90;;;;;;5014066;28;20512;-77
2023/09/04 07:31:24;;;;;;;20.67;15.60;;;19.60;99.90;;;;;;5015298;28;20045;-77
2023/09/04 07:33:51;;;;;;;23.45;14.80;;;19.60;99.90;;;;;;5008590;28;20511;-77
2023/09/04 07:36:17;;;;;;;25.02;16.38;;;19.60;99.90;;;;;;5030090;28;20091;-77
2023/09/04 07:38:46;;;;;;;18.48;15.02;;;19.50;99.90;;;;;;5018257;28;20084;-77
2023/09/04 07:41:13;;;;;;;19.17;14.63;;;19.50;99.90;;;;;;5023955;28;20576;-77
2023/09/04 07:43:40;;;;;;;19.55;14.63;;;19.50;99.90;;;;;;5033260;28;20049;-77
2023/09/04 07:46:06;;;;;;;18.55;14.00;;;19.50;99.90;;;;;;5022780;28;20521;-76
2023/09/04 07:48:36;;;;;;;19.33;13.85;;;19.50;99.90;;;;;;5024547;28;20096;-77
2023/09/04 07:51:05;;;;;;;23.92;16.02;;;19.50;99.90;;;;;;5029194;28;20045;-77
2023/09/04 07:53:49;;;;;;;19.35;14.27;;;19.40;99.90;;;;;;5018456;28;20058;-77
2023/09/04 07:56:16;;;;;;;19.38;14.45;;;19.40;99.90;;;;;;5029773;28;20045;-77
2023/09/04 07:58:44;;;;;;;22.08;15.07;;;19.40;99.90;;;;;;5031173;28;20053;-77
2023/09/04 08:01:14;;;;;;;23.88;16.05;;;19.40;99.90;;;;;;5023768;28;20466;-77
2023/09/04 08:03:41;;;;;;;;;;;19.40;99.90;;;;;;5026464;28;20050;-77
2023/09/04 08:06:08;;;;;;;19.00;15.60;;;19.40;99.90;;;;;;5031117;28;19925;-77
2023/09/04 08:08:35;;;;;;;20.02;15.07;;;19.40;99.90;;;;;;5018698;28;20494;-77
2023/09/04 08:11:02;;;;;;;19.15;15.07;;;19.40;99.90;;;;;;5009405;28;20124;-77
2023/09/04 08:13:29;;;;;;;20.80;15.57;;;19.40;99.90;;;;;;5025654;28;20088;-76
2023/09/04 08:15:55;;;;;;;22.00;14.93;;;19.50;99.90;;;;;;5022162;28;20081;-77
2023/09/04 08:18:22;;;;;;;20.98;15.20;;;19.50;99.90;;;;;;5025873;28;20080;-77
2023/09/04 08:20:49;;;;;;;17.75;13.05;;;19.50;99.90;;;;;;5012379;28;20101;-77
2023/09/04 08:23:16;;;;;;;23.95;14.48;;;19.50;99.90;;;;;;5006129;28;20092;-77
2023/09/04 08:25:43;;;;;;;19.35;14.65;;;19.50;99.90;;;;;;5028687;28;20107;-77
2023/09/04 08:28:09;;;;;;;19.38;13.73;;;19.50;99.90;;;;;;5033271;28;20101;-77
2023/09/04 08:30:36;;;;;;;22.92;13.48;;;19.50;99.90;;;;;;5029100;28;20045;-77
2023/09/04 08:33:03;;;;;;;15.95;12.27;;;19.60;99.90;;;;;;5026199;28;20046;-77
2023/09/04 08:35:30;;;;;;;15.80;12.45;;;19.60;99.90;;;;;;5033265;28;20065;-79
2023/09/04 08:37:57;;;;;;;14.93;10.23;;;19.60;99.90;;;;;;5031783;28;20609;-76
2023/09/04 08:40:24;;;;;;;17.90;11.77;;;19.60;99.90;;;;;;5030541;28;20116;-77
2023/09/04 08:42:52;;;;;;;12.57;9.00;;;19.60;99.90;;;;;;5013818;28;20120;-77
2023/09/04 08:45:20;;;;;;;8.63;6.40;;;19.70;99.90;;;;;;5028736;28;20154;-76
2023/09/04 08:47:47;;;;;;;11.85;7.40;;;19.70;99.90;;;;;;5024430;28;20046;-77
2023/09/04 08:50:14;;;;;;;12.73;6.85;;;19.70;99.90;;;;;;5030499;28;20084;-77
2023/09/04 08:52:41;;;;;;;12.55;7.22;;;19.80;99.90;;;;;;5012223;28;20081;-79
2023/09/04 08:55:08;;;;;;;10.38;7.55;;;19.80;99.90;;;;;;5050247;23;20136;-77
2023/09/04 08:57:35;;;;;;;9.70;7.50;;;19.90;99.90;;;;;;5012814;28;20053;-77
2023/09/04 09:00:03;;;;;;;9.10;6.65;;;19.90;99.90;;;;;;5016896;28;20088;-78
2023/09/04 09:02:30;;;;;;;8.25;5.82;;;19.90;99.90;;;;;;5014502;28;20045;-77
2023/09/04 09:04:57;;;;;;;8.35;5.43;;;19.90;99.90;;;;;;5014137;28;20063;-77
2023/09/04 09:07:28;;;;;;;6.03;4.68;;;20.00;99.90;;;;;;5026831;28;20079;-77
2023/09/04 09:09:58;;;;;;;5.18;4.13;;;20.00;99.90;;;;;;5024795;28;20053;-77
2023/09/04 09:12:25;;;;;;;7.68;4.82;;;20.10;99.90;;;;;;5016661;28;20050;-78
2023/09/04 09:14:53;;;;;;;7.95;3.75;;;20.10;99.90;;;;;;5016251;28;20099;-76
2023/09/04 09:17:19;;;;;;;5.45;3.50;;;20.10;99.90;;;;;;5015352;28;20108;-77
2023/09/04 09:19:46;;;;;;;8.10;4.45;;;20.20;99.90;;;;;;5013360;28;20069;-76
2023/09/04 09:22:17;;;;;;;13.25;6.10;;;20.20;99.90;;;;;;5018179;28;20081;-77
2023/09/04 09:24:59;;;;;;;10.13;7.53;;;20.30;99.90;;;;;;5017308;28;20141;-76
2023/09/04 09:27:28;;;;;;;8.32;6.00;;;20.30;99.90;;;;;;5017159;28;20045;-77
2023/09/04 09:29:59;;;;;;;12.75;5.82;;;20.40;99.90;;;;;;5016079;28;20492;-78
2023/09/04 09:32:28;;;;;;;10.25;6.65;;;20.40;99.90;;;;;;5014831;28;20555;-77
2023/09/04 09:34:57;;;;;;;17.42;9.10;;;20.40;99.90;;;;;;4996498;28;20042;-77
2023/09/04 09:37:29;;;;;;;13.25;8.20;;;20.50;99.90;;;;;;5012283;28;20096;-77
2023/09/04 09:39:56;;;;;;;15.05;8.20;;;20.60;99.90;;;;;;5013728;28;20069;-78
2023/09/04 09:42:24;;;;;;;14.18;7.28;;;20.60;99.90;;;;;;5015398;28;20045;-76
2023/09/04 09:44:52;;;;;;;12.25;6.00;;;20.70;99.90;;;;;;5012424;28;20133;-78
2023/09/04 09:47:20;;;;;;;6.45;4.45;;;20.70;99.90;;;;;;5012104;28;20054;-76
2023/09/04 09:49:47;;;;;;;8.90;4.70;;;20.80;99.90;;;;;;5015873;28;20485;-77
2023/09/04 09:52:13;;;;;;;6.40;4.18;;;20.80;99.90;;;;;;5017219;28;20085;-78
2023/09/04 09:54:45;;;;;;;6.45;3.45;;;20.90;99.90;;;;;;5016940;28;20460;-77
2023/09/04 09:57:13;;;;;;;2.60;1.70;;;21.00;99.90;;;;;;4997111;28;20080;-77
2023/09/04 09:59:47;;;;;;;3.47;2.17;;;21.10;99.90;;;;;;5014867;28;20100;-77
2023/09/04 10:02:24;;;;;;;2.60;2.00;;;21.10;99.90;;;;;;4993919;28;20104;-78
2023/09/04 10:04:51;;;;;;;2.55;2.10;;;21.20;99.90;;;;;;5012874;28;20454;-77
2023/09/04 10:07:21;;;;;;;4.57;2.85;;;21.20;99.90;;;;;;5000536;28;20057;-78
2023/09/04 10:09:51;;;;;;;;;;;21.30;99.90;;;;;;5016673;28;20054;-77
2023/09/04 10:12:30;;;;;;;2.50;2.15;;;21.30;99.90;;;;;;5013480;28;19960;-77
2023/09/04 10:14:59;;;;;;;2.28;1.92;;;21.40;99.90;;;;;;5013446;28;20097;-78
2023/09/04 10:17:39;;;;;;;2.55;1.83;;;21.40;99.90;;;;;;5015067;28;20556;-78
2023/09/04 10:20:06;;;;;;;4.45;2.53;;;21.40;99.90;;;;;;5013853;28;20046;-78
2023/09/04 10:22:45;;;;;;;4.90;2.47;;;21.50;99.90;;;;;;5016327;28;20048;-78
2023/09/04 10:25:23;;;;;;;5.50;1.98;;;21.60;99.90;;;;;;5015099;28;20089;-78
2023/09/04 10:28:03;;;;;;;2.50;2.00;;;21.60;99.90;;;;;;4996037;28;20078;-77
2023/09/04 10:30:33;;;;;;;5.97;1.92;;;21.70;99.90;;;;;;5014150;28;20513;-78
2023/09/04 10:33:00;;;;;;;2.25;1.70;;;21.70;99.90;;;;;;5019240;28;20084;-77
2023/09/04 10:35:27;;;;;;;5.03;2.08;;;21.80;99.90;;;;;;5021329;28;20054;-77
2023/09/04 10:37:56;;;;;;;3.72;2.05;;;21.80;99.90;;;;;;5004602;28;20053;-78
2023/09/04 10:40:23;;;;;;;3.42;2.13;;;21.80;99.90;;;;;;5019243;28;20081;-77
2023/09/04 10:42:50;;;;;;;6.53;2.38;;;21.90;99.90;;;;;;5019453;28;20046;-78
2023/09/04 10:45:20;;;;;;;4.93;1.63;;;22.00;99.90;;;;;;5026441;28;20084;-77
2023/09/04 10:47:51;;;;;;;2.97;1.80;;;22.00;99.90;;;;;;5034956;28;20046;-77
2023/09/04 10:50:29;;;;;;;2.58;1.70;;;22.10;99.90;;;;;;5029951;28;20081;-77
2023/09/04 10:53:00;;;;;;;4.43;1.83;;;22.10;99.90;;;;;;5024181;28;20088;-77
2023/09/04 10:55:28;;;;;;;3.83;1.80;;;22.20;99.90;;;;;;5020452;28;20140;-77
2023/09/04 10:58:01;;;;;;;2.53;1.80;;;22.20;99.90;;;;;;5018492;28;20133;-78
2023/09/04 11:00:37;;;;;;;4.57;1.70;;;22.20;99.90;;;;;;5018777;28;20468;-77
2023/09/04 11:03:22;;;;;;;2.75;2.00;;;22.30;99.90;;;;;;5019275;28;20069;-76
2023/09/04 11:06:07;;;;;;;2.88;1.80;;;22.30;99.90;;;;;;5019352;28;20057;-77
2023/09/04 11:08:47;;;;;;;2.30;1.92;;;22.40;99.90;;;;;;5022185;28;20049;-77
2023/09/04 11:11:14;;;;;;;3.20;1.98;;;22.40;99.90;;;;;;5000609;28;20137;-77
2023/09/04 11:13:43;;;;;;;5.63;2.28;;;22.50;99.90;;;;;;5017360;28;20077;-77
2023/09/04 11:16:09;;;;;;;4.75;2.45;;;22.60;99.90;;;;;;5016047;28;20049;-78
2023/09/04 11:18:37;;;;;;;3.40;2.22;;;22.60;99.90;;;;;;5021075;28;20041;-78
2023/09/04 11:21:04;;;;;;;3.53;1.80;;;22.70;99.90;;;;;;5017522;28;20073;-77
2023/09/04 11:23:33;;;;;;;10.55;2.95;;;22.70;99.90;;;;;;5002985;28;20496;-78
2023/09/04 11:26:02;;;;;;;4.75;2.30;;;22.70;99.90;;;;;;5016648;28;20081;-78
2023/09/04 11:28:29;;;;;;;3.55;2.20;;;22.80;99.90;;;;;;5017202;28;20077;-77
2023/09/04 11:30:57;;;;;;;4.38;2.60;;;22.90;99.90;;;;;;5018942;28;20084;-77
2023/09/04 11:33:29;;;;;;;4.43;2.85;;;22.90;99.90;;;;;;5019185;28;20049;-77
2023/09/04 11:36:01;;;;;;;5.57;2.72;;;22.90;99.90;;;;;;5015347;28;20042;-78
2023/09/04 11:38:30;;;;;;;5.68;2.90;;;23.00;99.90;;;;;;4998805;28;20042;-77
2023/09/04 11:40:57;;;;;;;3.53;2.47;;;23.00;99.90;;;;;;5015764;28;20049;-77
2023/09/04 11:43:26;;;;;;;4.93;2.33;;;23.10;99.90;;;;;;5018146;28;20046;-77
2023/09/04 11:45:59;;;;;;;3.90;2.80;;;23.10;99.90;;;;;;5013472;28;20045;-77
2023/09/04 11:48:27;;;;;;;3.45;2.35;;;23.10;99.90;;;;;;5019970;28;20584;-77
2023/09/04 11:50:54;;;;;;;4.88;2.53;;;23.10;99.90;;;;;;5019773;28;20045;-77
2023/09/04 11:53:22;;;;;;;3.90;2.60;;;23.20;99.90;;;;;;5001285;28;20050;-78
2023/09/04 11:55:53;;;;;;;5.15;2.70;;;23.20;99.90;;;;;;5013243;28;20041;-78
2023/09/04 11:58:21;;;;;;;4.68;2.78;;;23.20;99.90;;;;;;5017618;28;20081;-77
2023/09/04 12:00:48;;;;;;;5.78;2.50;;;23.30;99.90;;;;;;5021776;28;20048;-78
2023/09/04 12:03:14;;;;;;;4.57;2.92;;;23.30;99.90;;;;;;5018787;28;20713;-77
2023/09/04 12:05:42;;;;;;;4.35;2.95;;;23.30;99.90;;;;;;5018113;28;20464;-78
2023/09/04 12:08:09;;;;;;;3.28;2.97;;;23.30;99.90;;;;;;5017546;28;20137;-77
2023/09/04 12:10:39;;;;;;;5.30;2.80;;;23.40;99.90;;;;;;5016196;28;20079;-77
2023/09/04 12:13:06;;;;;;;4.78;2.65;;;23.40;99.90;;;;;;5018505;28;20042;-77
2023/09/04 12:15:33;;;;;;;6.45;2.97;;;23.40;99.90;;;;;;5021042;28;20434;-78
2023/09/04 12:18:04;;;;;;;5.32;3.38;;;23.40;99.90;;;;;;5018186;28;20092;-75
2023/09/04 12:20:34;;;;;;;5.68;3.03;;;23.50;99.90;;;;;;5017037;28;20129;-77
2023/09/04 12:23:01;;;;;;;2.97;2.42;;;23.60;99.90;;;;;;5017645;28;20493;-77
2023/09/04 12:25:54;;;;;;;4.75;3.03;;;23.60;99.90;;;;;;5017439;28;20077;-77
2023/09/04 12:28:27;;;;;;;3.20;2.90;;;23.60;99.90;;;;;;5013610;28;20081;-78
2023/09/04 12:30:54;;;;;;;4.35;2.58;;;23.60;99.90;;;;;;5018498;28;20077;-78
2023/09/04 12:33:20;;;;;;;3.25;2.40;;;23.70;99.90;;;;;;5003741;28;20070;-77
2023/09/04 12:35:56;;;;;;;4.22;2.88;;;23.80;99.90;;;;;;5020662;28;20468;-78
2023/09/04 12:38:23;;;;;;;4.60;2.53;;;23.80;99.90;;;;;;5014836;28;20117;-77
2023/09/04 12:40:50;;;;;;;3.92;2.30;;;23.80;99.90;;;;;;5020398;28;20114;-77
2023/09/04 12:43:17;;;;;;;5.90;2.38;;;23.80;99.90;;;;;;5017642;28;20046;-77
2023/09/04 12:45:43;;;;;;;2.85;2.45;;;23.90;99.90;;;;;;5019348;28;20045;-78